sensor_id;sensor_type;location;lat;lon;timestamp;pressure;altitude;pressure_sealevel;temperature;humidity
33191;BME280;19554;42.652;23.364;2023-05-01T00:01:21;94586.06;;;14.22;57.69
33191;BME280;19554;42.652;23.364;2023-05-01T00:03:47;94582.44;;;14.18;57.63
33191;BME280;19554;42.652;23.364;2023-05-01T00:06:13;94589.88;;;14.21;57.80
33191;BME280;19554;42.652;23.364;2023-05-01T00:08:38;94575.94;;;14.10;57.96
33191;BME280;19554;42.652;23.364;2023-05-01T00:11:04;94595.84;;;14.18;57.30
33191;BME280;19554;42.652;23.364;2023-05-01T00:13:30;94593.31;;;14.13;57.82
33191;BME280;19554;42.652;23.364;2023-05-01T00:15:56;94508.28;;;13.51;57.44
33191;BME280;19554;42.652;23.364;2023-05-01T00:18:21;94525.00;;;13.48;57.77
33191;BME280;19554;42.652;23.364;2023-05-01T00:20:47;94592.91;;;13.88;57.93
33191;BME280;19554;42.652;23.364;2023-05-01T00:23:13;94595.56;;;13.88;58.11
33191;BME280;19554;42.652;23.364;2023-05-01T00:25:38;94575.44;;;13.68;58.11
33191;BME280;19554;42.652;23.364;2023-05-01T00:28:04;94597.28;;;13.84;58.28
33191;BME280;19554;42.652;23.364;2023-05-01T00:30:33;94591.91;;;13.84;58.18
33191;BME280;19554;42.652;23.364;2023-05-01T00:32:59;94593.50;;;13.85;58.20
33191;BME280;19554;42.652;23.364;2023-05-01T00:35:26;94596.66;;;13.87;58.41
33191;BME280;19554;42.652;23.364;2023-05-01T00:37:52;94602.53;;;13.89;58.09
33191;BME280;19554;42.652;23.364;2023-05-01T00:40:17;94497.53;;;13.20;57.75
33191;BME280;19554;42.652;23.364;2023-05-01T00:42:42;94604.84;;;13.82;57.90
33191;BME280;19554;42.652;23.364;2023-05-01T00:45:08;94607.13;;;13.66;58.13
33191;BME280;19554;42.652;23.364;2023-05-01T00:47:34;94612.91;;;13.60;58.15
33191;BME280;19554;42.652;23.364;2023-05-01T00:50:01;94610.47;;;13.49;58.56
33191;BME280;19554;42.652;23.364;2023-05-01T00:52:26;94610.47;;;13.49;58.86
33191;BME280;19554;42.652;23.364;2023-05-01T00:54:53;94612.19;;;13.45;59.09
33191;BME280;19554;42.652;23.364;2023-05-01T00:57:19;94617.75;;;13.49;59.19
33191;BME280;19554;42.652;23.364;2023-05-01T00:59:45;94531.56;;;12.97;59.33
33191;BME280;19554;42.652;23.364;2023-05-01T01:02:11;94579.13;;;13.27;59.11
33191;BME280;19554;42.652;23.364;2023-05-01T01:04:41;94615.22;;;13.52;59.02
33191;BME280;19554;42.652;23.364;2023-05-01T01:07:10;94628.28;;;13.45;58.63
33191;BME280;19554;42.652;23.364;2023-05-01T01:10:01;94561.09;;;13.05;58.66
33191;BME280;19554;42.652;23.364;2023-05-01T01:15:34;94617.19;;;13.38;59.10
33191;BME280;19554;42.652;23.364;2023-05-01T01:18:08;94609.88;;;13.30;59.44
33191;BME280;19554;42.652;23.364;2023-05-01T01:21:24;94620.78;;;13.34;58.93
33191;BME280;19554;42.652;23.364;2023-05-01T01:34:33;94635.09;;;13.29;59.21
33191;BME280;19554;42.652;23.364;2023-05-01T01:42:25;94624.31;;;13.07;59.04
33191;BME280;19554;42.652;23.364;2023-05-01T01:44:55;94644.06;;;13.11;59.09
33191;BME280;19554;42.652;23.364;2023-05-01T01:47:25;94638.13;;;13.00;59.31
33191;BME280;19554;42.652;23.364;2023-05-01T01:49:54;94633.88;;;12.85;59.77
33191;BME280;19554;42.652;23.364;2023-05-01T01:52:21;94643.53;;;12.86;59.88
33191;BME280;19554;42.652;23.364;2023-05-01T01:55:06;94634.00;;;12.80;60.07
33191;BME280;19554;42.652;23.364;2023-05-01T01:57:35;94638.38;;;12.76;59.45
33191;BME280;19554;42.652;23.364;2023-05-01T02:00:02;94631.94;;;12.77;60.28
33191;BME280;19554;42.652;23.364;2023-05-01T02:02:35;94632.84;;;12.72;59.43
33191;BME280;19554;42.652;23.364;2023-05-01T02:05:02;94617.19;;;12.66;59.56
33191;BME280;19554;42.652;23.364;2023-05-01T02:07:30;94597.16;;;12.49;60.13
33191;BME280;19554;42.652;23.364;2023-05-01T02:09:57;94533.75;;;12.08;60.20
33191;BME280;19554;42.652;23.364;2023-05-01T02:12:24;94630.25;;;12.67;59.74
33191;BME280;19554;42.652;23.364;2023-05-01T02:14:52;94627.09;;;12.65;59.68
33191;BME280;19554;42.652;23.364;2023-05-01T02:17:19;94635.41;;;12.64;60.06
33191;BME280;19554;42.652;23.364;2023-05-01T02:19:45;94617.47;;;12.50;59.96
33191;BME280;19554;42.652;23.364;2023-05-01T02:22:11;94550.00;;;11.98;60.28
33191;BME280;19554;42.652;23.364;2023-05-01T02:24:38;94599.25;;;12.25;62.73
33191;BME280;19554;42.652;23.364;2023-05-01T02:27:10;94631.44;;;12.47;62.82
33191;BME280;19554;42.652;23.364;2023-05-01T02:29:37;94593.19;;;12.33;62.88
33191;BME280;19554;42.652;23.364;2023-05-01T02:32:03;94609.25;;;12.47;62.35
33191;BME280;19554;42.652;23.364;2023-05-01T02:34:28;94629.66;;;12.56;62.54
33191;BME280;19554;42.652;23.364;2023-05-01T02:36:53;94629.66;;;12.56;62.57
33191;BME280;19554;42.652;23.364;2023-05-01T02:39:19;94615.38;;;12.47;62.27
33191;BME280;19554;42.652;23.364;2023-05-01T02:41:46;94624.50;;;12.60;62.09
33191;BME280;19554;42.652;23.364;2023-05-01T02:44:13;94627.69;;;12.62;61.78
33191;BME280;19554;42.652;23.364;2023-05-01T02:46:41;94617.25;;;12.61;60.60
33191;BME280;19554;42.652;23.364;2023-05-01T02:49:09;94577.72;;;12.30;60.35
33191;BME280;19554;42.652;23.364;2023-05-01T02:51:35;94622.53;;;12.52;60.30
33191;BME280;19554;42.652;23.364;2023-05-01T02:54:01;94623.34;;;12.39;59.34
33191;BME280;19554;42.652;23.364;2023-05-01T02:56:27;94633.66;;;12.31;58.90
33191;BME280;19554;42.652;23.364;2023-05-01T02:58:53;94633.34;;;12.19;59.85
33191;BME280;19554;42.652;23.364;2023-05-01T03:01:19;94601.09;;;11.83;60.03
33191;BME280;19554;42.652;23.364;2023-05-01T03:03:45;94634.25;;;12.15;60.46
33191;BME280;19554;42.652;23.364;2023-05-01T03:06:10;94640.78;;;12.08;60.13
33191;BME280;19554;42.652;23.364;2023-05-01T03:08:38;94639.28;;;12.02;60.03
33191;BME280;19554;42.652;23.364;2023-05-01T03:11:07;94638.47;;;11.88;60.21
33191;BME280;19554;42.652;23.364;2023-05-01T03:13:33;94631.75;;;11.72;61.08
33191;BME280;19554;42.652;23.364;2023-05-01T03:15:59;94634.84;;;11.46;62.51
33191;BME280;19554;42.652;23.364;2023-05-01T03:18:24;94648.50;;;11.45;63.89
33191;BME280;19554;42.652;23.364;2023-05-01T03:20:51;94553.94;;;10.75;64.97
33191;BME280;19554;42.652;23.364;2023-05-01T03:23:17;94652.22;;;11.30;66.67
33191;BME280;19554;42.652;23.364;2023-05-01T03:25:43;94645.94;;;11.21;67.78
33191;BME280;19554;42.652;23.364;2023-05-01T03:28:08;94653.44;;;11.19;68.42
33191;BME280;19554;42.652;23.364;2023-05-01T03:30:34;94631.13;;;11.09;68.02
33191;BME280;19554;42.652;23.364;2023-05-01T03:33:00;94660.75;;;11.32;67.41
33191;BME280;19554;42.652;23.364;2023-05-01T03:35:26;94660.75;;;11.32;66.76
33191;BME280;19554;42.652;23.364;2023-05-01T03:37:51;94662.31;;;11.33;67.01
33191;BME280;19554;42.652;23.364;2023-05-01T03:40:16;94668.66;;;11.37;67.61
33191;BME280;19554;42.652;23.364;2023-05-01T03:42:43;94653.78;;;11.31;67.31
33191;BME280;19554;42.652;23.364;2023-05-01T03:45:08;94665.13;;;11.42;66.83
33191;BME280;19554;42.652;23.364;2023-05-01T03:47:34;94651.41;;;11.29;66.23
33191;BME280;19554;42.652;23.364;2023-05-01T03:49:59;94677.63;;;11.46;66.05
33191;BME280;19554;42.652;23.364;2023-05-01T03:52:26;94686.38;;;11.66;65.23
33191;BME280;19554;42.652;23.364;2023-05-01T03:54:51;94671.22;;;11.80;63.34
33191;BME280;19554;42.652;23.364;2023-05-01T03:57:17;94681.44;;;12.24;61.61
33191;BME280;19554;42.652;23.364;2023-05-01T03:59:45;94679.44;;;12.57;61.35
33191;BME280;19554;42.652;23.364;2023-05-01T04:02:10;94571.22;;;12.08;59.76
33191;BME280;19554;42.652;23.364;2023-05-01T04:04:35;94686.56;;;13.03;58.45
33191;BME280;19554;42.652;23.364;2023-05-01T04:07:01;94681.75;;;13.28;57.70
33191;BME280;19554;42.652;23.364;2023-05-01T04:09:27;94651.53;;;13.36;56.44
33191;BME280;19554;42.652;23.364;2023-05-01T04:11:54;94684.38;;;13.78;54.67
33191;BME280;19554;42.652;23.364;2023-05-01T04:14:19;94682.75;;;13.99;53.99
33191;BME280;19554;42.652;23.364;2023-05-01T04:16:45;94690.41;;;14.15;53.83
33191;BME280;19554;42.652;23.364;2023-05-01T04:19:10;94684.94;;;14.20;54.05
33191;BME280;19554;42.652;23.364;2023-05-01T04:21:36;94678.25;;;14.40;53.59
33191;BME280;19554;42.652;23.364;2023-05-01T04:24:01;94675.03;;;14.69;53.04
33191;BME280;19554;42.652;23.364;2023-05-01T04:26:26;94686.78;;;14.90;52.40
33191;BME280;19554;42.652;23.364;2023-05-01T04:28:52;94669.75;;;15.04;51.91
33191;BME280;19554;42.652;23.364;2023-05-01T04:31:17;94689.56;;;15.34;51.74
33191;BME280;19554;42.652;23.364;2023-05-01T04:33:43;94686.56;;;15.53;51.33
33191;BME280;19554;42.652;23.364;2023-05-01T04:36:08;94677.06;;;15.64;51.21
33191;BME280;19554;42.652;23.364;2023-05-01T04:38:33;94678.22;;;15.80;50.85
33191;BME280;19554;42.652;23.364;2023-05-01T04:41:01;94688.94;;;15.98;50.83
33191;BME280;19554;42.652;23.364;2023-05-01T04:43:26;94621.69;;;15.63;50.44
33191;BME280;19554;42.652;23.364;2023-05-01T04:45:53;94696.34;;;16.18;49.76
33191;BME280;19554;42.652;23.364;2023-05-01T04:48:18;94678.47;;;15.96;50.46
33191;BME280;19554;42.652;23.364;2023-05-01T04:50:43;94643.19;;;15.89;49.97
33191;BME280;19554;42.652;23.364;2023-05-01T04:53:09;94696.19;;;16.15;50.21
33191;BME280;19554;42.652;23.364;2023-05-01T04:55:35;94697.13;;;16.27;49.80
33191;BME280;19554;42.652;23.364;2023-05-01T04:58:00;94699.03;;;16.18;50.39
33191;BME280;19554;42.652;23.364;2023-05-01T05:00:27;94705.63;;;16.47;50.07
33191;BME280;19554;42.652;23.364;2023-05-01T05:02:53;94699.19;;;16.13;50.91
33191;BME280;19554;42.652;23.364;2023-05-01T05:05:18;94700.56;;;16.45;50.48
33191;BME280;19554;42.652;23.364;2023-05-01T05:07:44;94713.75;;;16.38;50.61
33191;BME280;19554;42.652;23.364;2023-05-01T05:10:09;94706.78;;;16.28;51.06
33191;BME280;19554;42.652;23.364;2023-05-01T05:12:35;94713.81;;;15.95;52.04
33191;BME280;19554;42.652;23.364;2023-05-01T05:15:00;94722.69;;;15.69;52.95
33191;BME280;19554;42.652;23.364;2023-05-01T05:17:25;94727.41;;;15.63;53.18
33191;BME280;19554;42.652;23.364;2023-05-01T05:19:51;94715.53;;;15.56;53.80
33191;BME280;19554;42.652;23.364;2023-05-01T05:22:17;94734.72;;;15.80;53.42
33191;BME280;19554;42.652;23.364;2023-05-01T05:24:42;94723.66;;;15.73;53.51
33191;BME280;19554;42.652;23.364;2023-05-01T05:27:08;94719.84;;;15.74;53.40
33191;BME280;19554;42.652;23.364;2023-05-01T05:29:33;94729.63;;;16.05;52.92
33191;BME280;19554;42.652;23.364;2023-05-01T05:32:00;94734.53;;;16.11;53.04
33191;BME280;19554;42.652;23.364;2023-05-01T05:34:25;94725.03;;;16.14;52.73
33191;BME280;19554;42.652;23.364;2023-05-01T05:36:50;94715.34;;;16.13;52.90
33191;BME280;19554;42.652;23.364;2023-05-01T05:39:16;94736.19;;;16.51;52.62
33191;BME280;19554;42.652;23.364;2023-05-01T05:41:41;94742.03;;;16.62;52.30
33191;BME280;19554;42.652;23.364;2023-05-01T05:44:07;94731.75;;;16.55;52.85
33191;BME280;19554;42.652;23.364;2023-05-01T05:46:32;94732.69;;;16.59;52.63
33191;BME280;19554;42.652;23.364;2023-05-01T05:48:58;94734.25;;;16.60;52.23
33191;BME280;19554;42.652;23.364;2023-05-01T05:51:23;94698.09;;;16.61;52.26
33191;BME280;19554;42.652;23.364;2023-05-01T05:53:48;94723.56;;;17.19;51.54
33191;BME280;19554;42.652;23.364;2023-05-01T05:56:14;94739.16;;;17.64;49.91
33191;BME280;19554;42.652;23.364;2023-05-01T05:58:39;94729.66;;;17.58;49.86
33191;BME280;19554;42.652;23.364;2023-05-01T06:01:05;94746.78;;;17.62;49.67
33191;BME280;19554;42.652;23.364;2023-05-01T06:03:31;94740.47;;;17.58;50.24
33191;BME280;19554;42.652;23.364;2023-05-01T06:05:56;94744.63;;;17.76;49.85
33191;BME280;19554;42.652;23.364;2023-05-01T06:08:22;94639.63;;;17.21;49.35
33191;BME280;19554;42.652;23.364;2023-05-01T06:10:47;94735.56;;;17.81;49.57
33191;BME280;19554;42.652;23.364;2023-05-01T06:13:13;94685.28;;;17.47;49.55
33191;BME280;19554;42.652;23.364;2023-05-01T06:15:39;94747.47;;;18.01;49.42
33191;BME280;19554;42.652;23.364;2023-05-01T06:18:05;94752.06;;;18.00;49.27
33191;BME280;19554;42.652;23.364;2023-05-01T06:20:31;94732.13;;;17.93;49.12
33191;BME280;19554;42.652;23.364;2023-05-01T06:22:57;94712.28;;;17.68;49.25
33191;BME280;19554;42.652;23.364;2023-05-01T06:25:22;94749.84;;;17.82;49.76
33191;BME280;19554;42.652;23.364;2023-05-01T06:27:49;94748.13;;;17.98;49.25
33191;BME280;19554;42.652;23.364;2023-05-01T06:30:14;94746.50;;;18.18;48.93
33191;BME280;19554;42.652;23.364;2023-05-01T06:32:40;94732.53;;;18.49;47.78
33191;BME280;19554;42.652;23.364;2023-05-01T06:35:08;94741.69;;;18.57;47.89
33191;BME280;19554;42.652;23.364;2023-05-01T06:37:33;94756.44;;;18.59;47.34
33191;BME280;19554;42.652;23.364;2023-05-01T06:39:59;94702.50;;;18.17;47.72
33191;BME280;19554;42.652;23.364;2023-05-01T06:42:24;94743.13;;;19.00;47.14
33191;BME280;19554;42.652;23.364;2023-05-01T06:44:49;94746.88;;;19.32;46.41
33191;BME280;19554;42.652;23.364;2023-05-01T06:47:15;94752.25;;;19.56;45.28
33191;BME280;19554;42.652;23.364;2023-05-01T06:49:40;94754.75;;;19.49;44.36
33191;BME280;19554;42.652;23.364;2023-05-01T06:52:07;94730.28;;;19.33;44.77
33191;BME280;19554;42.652;23.364;2023-05-01T06:54:33;94744.25;;;19.11;45.83
33191;BME280;19554;42.652;23.364;2023-05-01T06:56:58;94747.41;;;19.13;45.92
33191;BME280;19554;42.652;23.364;2023-05-01T06:59:23;94744.94;;;19.32;45.69
33191;BME280;19554;42.652;23.364;2023-05-01T07:01:49;94735.59;;;19.42;45.79
33191;BME280;19554;42.652;23.364;2023-05-01T07:04:15;94748.19;;;19.50;44.48
33191;BME280;19554;42.652;23.364;2023-05-01T07:06:40;94756.53;;;19.57;44.21
33191;BME280;19554;42.652;23.364;2023-05-01T07:09:05;94748.31;;;19.66;43.64
33191;BME280;19554;42.652;23.364;2023-05-01T07:11:32;94747.97;;;19.31;44.49
33191;BME280;19554;42.652;23.364;2023-05-01T07:13:59;94752.81;;;19.74;44.32
33191;BME280;19554;42.652;23.364;2023-05-01T07:16:25;94751.47;;;20.08;43.36
33191;BME280;19554;42.652;23.364;2023-05-01T07:18:50;94751.81;;;20.35;42.81
33191;BME280;19554;42.652;23.364;2023-05-01T07:21:16;94753.88;;;20.26;43.13
33191;BME280;19554;42.652;23.364;2023-05-01T07:23:41;94762.41;;;19.72;44.62
33191;BME280;19554;42.652;23.364;2023-05-01T07:26:06;94760.97;;;20.02;43.96
33191;BME280;19554;42.652;23.364;2023-05-01T07:28:32;94676.94;;;19.34;43.88
33191;BME280;19554;42.652;23.364;2023-05-01T07:30:57;94740.88;;;19.63;44.78
33191;BME280;19554;42.652;23.364;2023-05-01T07:33:23;94676.69;;;18.65;45.94
33191;BME280;19554;42.652;23.364;2023-05-01T07:35:51;94766.69;;;18.99;45.98
33191;BME280;19554;42.652;23.364;2023-05-01T07:38:17;94760.41;;;19.32;45.45
33191;BME280;19554;42.652;23.364;2023-05-01T07:40:43;94758.78;;;19.55;45.34
33191;BME280;19554;42.652;23.364;2023-05-01T07:43:08;94754.25;;;19.84;44.54
33191;BME280;19554;42.652;23.364;2023-05-01T07:45:37;94755.66;;;20.06;43.95
33191;BME280;19554;42.652;23.364;2023-05-01T07:48:04;94754.88;;;20.05;43.69
33191;BME280;19554;42.652;23.364;2023-05-01T07:50:30;94760.97;;;20.02;43.89
33191;BME280;19554;42.652;23.364;2023-05-01T07:52:55;94765.13;;;20.40;43.14
33191;BME280;19554;42.652;23.364;2023-05-01T07:55:22;94744.63;;;20.27;42.26
33191;BME280;19554;42.652;23.364;2023-05-01T07:57:47;94763.16;;;20.25;42.84
33191;BME280;19554;42.652;23.364;2023-05-01T08:00:13;94760.47;;;20.12;43.06
33191;BME280;19554;42.652;23.364;2023-05-01T08:02:39;94759.31;;;19.85;42.94
33191;BME280;19554;42.652;23.364;2023-05-01T08:05:05;94761.91;;;19.94;43.69
33191;BME280;19554;42.652;23.364;2023-05-01T08:07:31;94751.44;;;20.21;43.05
33191;BME280;19554;42.652;23.364;2023-05-01T08:09:56;94759.59;;;20.36;42.71
33191;BME280;19554;42.652;23.364;2023-05-01T08:12:21;94754.97;;;20.37;42.68
33191;BME280;19554;42.652;23.364;2023-05-01T08:14:47;94761.44;;;20.61;41.51
33191;BME280;19554;42.652;23.364;2023-05-01T08:17:12;94749.66;;;20.69;42.22
33191;BME280;19554;42.652;23.364;2023-05-01T08:19:38;94752.44;;;20.88;40.74
33191;BME280;19554;42.652;23.364;2023-05-01T08:22:03;94752.63;;;20.95;40.52
33191;BME280;19554;42.652;23.364;2023-05-01T08:24:28;94757.09;;;21.19;40.22
33191;BME280;19554;42.652;23.364;2023-05-01T08:26:54;94760.16;;;21.18;39.19
33191;BME280;19554;42.652;23.364;2023-05-01T08:29:20;94750.88;;;20.87;39.02
33191;BME280;19554;42.652;23.364;2023-05-01T08:31:45;94758.56;;;20.85;39.33
33191;BME280;19554;42.652;23.364;2023-05-01T08:34:11;94754.28;;;20.84;39.68
33191;BME280;19554;42.652;23.364;2023-05-01T08:36:36;94757.00;;;20.84;39.42
33191;BME280;19554;42.652;23.364;2023-05-01T08:39:02;94756.13;;;21.12;38.79
33191;BME280;19554;42.652;23.364;2023-05-01T08:41:29;94760.91;;;20.55;38.01
33191;BME280;19554;42.652;23.364;2023-05-01T08:43:56;94754.53;;;20.35;38.52
33191;BME280;19554;42.652;23.364;2023-05-01T08:49:01;94763.53;;;19.83;41.21
33191;BME280;19554;42.652;23.364;2023-05-01T08:51:30;94747.91;;;19.92;41.42
33191;BME280;19554;42.652;23.364;2023-05-01T08:53:58;94744.09;;;19.93;40.46
33191;BME280;19554;42.652;23.364;2023-05-01T08:56:24;94736.94;;;20.29;40.63
33191;BME280;19554;42.652;23.364;2023-05-01T08:58:51;94744.13;;;20.37;41.16
33191;BME280;19554;42.652;23.364;2023-05-01T09:01:19;94741.97;;;20.15;40.17
33191;BME280;19554;42.652;23.364;2023-05-01T09:03:46;94740.59;;;20.21;38.52
33191;BME280;19554;42.652;23.364;2023-05-01T09:06:12;94730.63;;;19.97;39.05
33191;BME280;19554;42.652;23.364;2023-05-01T09:08:38;94738.00;;;20.12;38.55
33191;BME280;19554;42.652;23.364;2023-05-01T09:11:03;94748.97;;;20.16;37.45
33191;BME280;19554;42.652;23.364;2023-05-01T09:13:29;94677.63;;;19.83;36.81
33191;BME280;19554;42.652;23.364;2023-05-01T09:15:55;94676.97;;;19.62;38.12
33191;BME280;19554;42.652;23.364;2023-05-01T09:18:21;94741.97;;;20.15;38.85
33191;BME280;19554;42.652;23.364;2023-05-01T09:20:46;94697.91;;;20.18;37.99
33191;BME280;19554;42.652;23.364;2023-05-01T09:23:12;94747.69;;;20.53;36.74
33191;BME280;19554;42.652;23.364;2023-05-01T09:25:37;94749.47;;;20.62;37.10
33191;BME280;19554;42.652;23.364;2023-05-01T09:28:04;94680.16;;;20.20;36.22
33191;BME280;19554;42.652;23.364;2023-05-01T09:30:35;94747.53;;;20.78;36.20
33191;BME280;19554;42.652;23.364;2023-05-01T09:33:11;94726.78;;;20.54;37.29
33191;BME280;19554;42.652;23.364;2023-05-01T09:35:54;94740.53;;;20.77;36.58
33191;BME280;19554;42.652;23.364;2023-05-01T09:38:24;94729.34;;;20.78;36.23
33191;BME280;19554;42.652;23.364;2023-05-01T09:40:52;94747.91;;;20.76;37.39
33191;BME280;19554;42.652;23.364;2023-05-01T09:43:28;94735.00;;;20.57;38.81
33191;BME280;19554;42.652;23.364;2023-05-01T09:46:01;94739.16;;;20.83;38.77
33191;BME280;19554;42.652;23.364;2023-05-01T09:48:29;94728.66;;;20.97;38.39
33191;BME280;19554;42.652;23.364;2023-05-01T09:50:55;94707.31;;;20.36;39.67
33191;BME280;19554;42.652;23.364;2023-05-01T09:53:35;94734.25;;;20.73;39.58
33191;BME280;19554;42.652;23.364;2023-05-01T09:56:02;94730.66;;;20.69;39.50
33191;BME280;19554;42.652;23.364;2023-05-01T09:58:27;94721.84;;;20.72;40.43
33191;BME280;19554;42.652;23.364;2023-05-01T10:00:53;94724.81;;;20.10;39.85
33191;BME280;19554;42.652;23.364;2023-05-01T10:03:18;94735.97;;;19.93;40.46
33191;BME280;19554;42.652;23.364;2023-05-01T10:05:44;94712.28;;;20.06;39.35
33191;BME280;19554;42.652;23.364;2023-05-01T10:08:09;94721.41;;;20.13;38.58
33191;BME280;19554;42.652;23.364;2023-05-01T10:10:41;94716.13;;;20.33;38.62
33191;BME280;19554;42.652;23.364;2023-05-01T10:13:17;94721.72;;;20.24;39.85
33191;BME280;19554;42.652;23.364;2023-05-01T10:15:44;94715.66;;;19.75;39.17
33191;BME280;19554;42.652;23.364;2023-05-01T10:18:11;94647.66;;;19.11;38.48
33191;BME280;19554;42.652;23.364;2023-05-01T10:20:38;94662.53;;;19.05;39.23
33191;BME280;19554;42.652;23.364;2023-05-01T10:23:04;94719.06;;;19.72;39.35
33191;BME280;19554;42.652;23.364;2023-05-01T10:25:30;94712.75;;;19.68;38.53
33191;BME280;19554;42.652;23.364;2023-05-01T10:27:56;94708.63;;;19.86;37.19
33191;BME280;19554;42.652;23.364;2023-05-01T10:30:22;94699.00;;;20.01;37.71
33191;BME280;19554;42.652;23.364;2023-05-01T10:32:48;94667.13;;;19.82;36.58
33191;BME280;19554;42.652;23.364;2023-05-01T10:35:25;94709.75;;;19.97;37.27
33191;BME280;19554;42.652;23.364;2023-05-01T10:38:04;94709.72;;;19.45;36.73
33191;BME280;19554;42.652;23.364;2023-05-01T10:45:52;94722.94;;;19.46;38.68
33191;BME280;19554;42.652;23.364;2023-05-01T10:48:54;94719.09;;;19.35;37.85
33191;BME280;19554;42.652;23.364;2023-05-01T10:51:22;94672.00;;;18.99;38.44
33191;BME280;19554;42.652;23.364;2023-05-01T10:54:20;94709.19;;;19.39;38.14
33191;BME280;19554;42.652;23.364;2023-05-01T10:59:02;94717.09;;;19.32;40.11
33191;BME280;19554;42.652;23.364;2023-05-01T11:01:33;94730.41;;;18.88;41.46
33191;BME280;19554;42.652;23.364;2023-05-01T11:07:14;94716.41;;;19.10;41.15
33191;BME280;19554;42.652;23.364;2023-05-01T11:09:47;94715.53;;;18.94;41.07
33191;BME280;19554;42.652;23.364;2023-05-01T11:12:15;94708.75;;;18.88;40.95
33191;BME280;19554;42.652;23.364;2023-05-01T11:15:00;94716.63;;;18.93;40.86
33191;BME280;19554;42.652;23.364;2023-05-01T11:22:50;94705.38;;;18.91;40.39
33191;BME280;19554;42.652;23.364;2023-05-01T11:25:17;94707.41;;;18.94;40.07
33191;BME280;19554;42.652;23.364;2023-05-01T11:27:48;94707.84;;;19.08;38.85
33191;BME280;19554;42.652;23.364;2023-05-01T11:30:15;94719.13;;;19.23;39.11
33191;BME280;19554;42.652;23.364;2023-05-01T11:32:46;94731.75;;;19.18;39.58
33191;BME280;19554;42.652;23.364;2023-05-01T11:35:30;94713.28;;;19.08;39.41
33191;BME280;19554;42.652;23.364;2023-05-01T11:37:56;94711.44;;;19.00;39.19
33191;BME280;19554;42.652;23.364;2023-05-01T11:40:27;94718.69;;;19.08;38.58
33191;BME280;19554;42.652;23.364;2023-05-01T11:43:03;94718.00;;;18.99;39.83
33191;BME280;19554;42.652;23.364;2023-05-01T11:45:29;94722.75;;;19.14;40.00
33191;BME280;19554;42.652;23.364;2023-05-01T11:47:56;94730.84;;;19.39;39.09
33191;BME280;19554;42.652;23.364;2023-05-01T11:50:31;94670.63;;;19.30;37.99
33191;BME280;19554;42.652;23.364;2023-05-01T11:52:57;94716.94;;;19.53;37.98
33191;BME280;19554;42.652;23.364;2023-05-01T11:55:33;94736.03;;;19.20;37.14
33191;BME280;19554;42.652;23.364;2023-05-01T11:57:58;94718.56;;;19.05;37.54
33191;BME280;19554;42.652;23.364;2023-05-01T12:00:33;94731.28;;;19.16;37.35
33191;BME280;19554;42.652;23.364;2023-05-01T12:03:06;94727.22;;;19.10;37.62
33191;BME280;19554;42.652;23.364;2023-05-01T12:05:33;94737.38;;;19.13;37.37
33191;BME280;19554;42.652;23.364;2023-05-01T12:08:11;94730.41;;;19.12;36.68
33191;BME280;19554;42.652;23.364;2023-05-01T12:10:39;94731.63;;;19.27;35.73
33191;BME280;19554;42.652;23.364;2023-05-01T12:13:06;94738.38;;;19.21;36.32
33191;BME280;19554;42.652;23.364;2023-05-01T12:15:36;94742.56;;;19.31;35.89
33191;BME280;19554;42.652;23.364;2023-05-01T12:18:05;94755.88;;;19.11;37.24
33191;BME280;19554;42.652;23.364;2023-05-01T12:23:02;94738.50;;;19.25;35.89
33191;BME280;19554;42.652;23.364;2023-05-01T12:25:30;94744.59;;;18.97;35.72
33191;BME280;19554;42.652;23.364;2023-05-01T12:27:56;94744.13;;;18.83;36.11
33191;BME280;19554;42.652;23.364;2023-05-01T12:30:26;94736.47;;;18.85;36.56
33191;BME280;19554;42.652;23.364;2023-05-01T12:32:52;94752.81;;;18.88;36.38
33191;BME280;19554;42.652;23.364;2023-05-01T12:35:17;94737.69;;;18.75;36.23
33191;BME280;19554;42.652;23.364;2023-05-01T12:37:42;94721.09;;;18.64;35.43
33191;BME280;19554;42.652;23.364;2023-05-01T12:40:12;94747.41;;;18.88;35.34
33191;BME280;19554;42.652;23.364;2023-05-01T12:42:38;94744.56;;;18.73;35.54
33191;BME280;19554;42.652;23.364;2023-05-01T12:45:04;94747.47;;;18.67;35.17
33191;BME280;19554;42.652;23.364;2023-05-01T12:47:35;94757.13;;;18.68;34.62
33191;BME280;19554;42.652;23.364;2023-05-01T12:50:02;94739.97;;;18.52;34.66
33191;BME280;19554;42.652;23.364;2023-05-01T12:52:27;94707.78;;;18.59;34.65
33191;BME280;19554;42.652;23.364;2023-05-01T12:55:03;94729.72;;;18.91;36.67
33191;BME280;19554;42.652;23.364;2023-05-01T12:57:29;94712.22;;;18.76;37.88
33191;BME280;19554;42.652;23.364;2023-05-01T13:00:02;94741.66;;;18.90;37.37
33191;BME280;19554;42.652;23.364;2023-05-01T13:02:32;94731.72;;;18.82;37.68
33191;BME280;19554;42.652;23.364;2023-05-01T13:05:08;94749.97;;;18.73;37.91
33191;BME280;19554;42.652;23.364;2023-05-01T13:07:47;94753.38;;;18.48;38.85
33191;BME280;19554;42.652;23.364;2023-05-01T13:10:13;94749.84;;;18.36;38.40
33191;BME280;19554;42.652;23.364;2023-05-01T13:12:43;94741.88;;;18.39;38.72
33191;BME280;19554;42.652;23.364;2023-05-01T13:15:18;94755.16;;;18.44;38.70
33191;BME280;19554;42.652;23.364;2023-05-01T13:17:45;94743.81;;;18.51;38.81
33191;BME280;19554;42.652;23.364;2023-05-01T13:20:10;94735.25;;;18.49;40.33
33191;BME280;19554;42.652;23.364;2023-05-01T13:22:37;94765.63;;;18.46;42.04
33191;BME280;19554;42.652;23.364;2023-05-01T13:25:23;94760.81;;;18.39;42.17
33191;BME280;19554;42.652;23.364;2023-05-01T13:27:52;94740.38;;;18.30;42.44
33191;BME280;19554;42.652;23.364;2023-05-01T13:30:20;94761.00;;;18.34;42.66
33191;BME280;19554;42.652;23.364;2023-05-01T13:32:46;94757.69;;;18.29;42.58